createdAt,value
2022-08-08T00:02:04.069Z,21.92
2022-08-08T00:04:49.382Z,20.98
2022-08-08T00:07:29.497Z,21.14
2022-08-08T00:10:14.975Z,22.24
2022-08-08T00:12:56.478Z,22.67
2022-08-08T00:15:55.941Z,20.40
2022-08-08T00:18:26.998Z,21.79
2022-08-08T00:21:02.154Z,22.25
2022-08-08T00:23:51.466Z,21.65
2022-08-08T00:26:30.418Z,21.33
2022-08-08T00:29:08.354Z,22.09
2022-08-08T00:32:21.475Z,21.78
2022-08-08T00:35:04.882Z,21.46
2022-08-08T00:38:01.932Z,21.92
2022-08-08T00:41:12.079Z,21.69
2022-08-08T00:43:22.030Z,20.29
2022-08-08T00:45:56.350Z,21.46
2022-08-08T00:48:59.306Z,21.11
2022-08-08T00:51:38.877Z,21.04
2022-08-08T00:54:34.282Z,21.50
2022-08-08T00:57:36.011Z,21.52
2022-08-08T01:00:12.011Z,21.14
2022-08-08T01:03:58.165Z,21.73
2022-08-08T01:07:10.700Z,21.12
2022-08-08T01:10:21.182Z,20.83
2022-08-08T01:12:59.542Z,21.41
2022-08-08T01:15:54.308Z,20.48
2022-08-08T01:18:52.627Z,20.61
2022-08-08T01:22:13.226Z,20.91
2022-08-08T01:24:58.043Z,20.21
2022-08-08T01:27:46.104Z,21.35
2022-08-08T01:30:27.250Z,20.71
2022-08-08T01:33:42.911Z,20.73
2022-08-08T01:36:28.594Z,21.70
2022-08-08T01:39:28.545Z,21.70
2022-08-08T01:42:36.231Z,21.69
2022-08-08T01:45:40.858Z,21.01
2022-08-08T01:48:31.035Z,21.15
2022-08-08T01:52:51.927Z,21.23
2022-08-08T01:55:46.271Z,21.11
2022-08-08T01:58:04.596Z,19.24
2022-08-08T02:00:34.781Z,19.92
2022-08-08T02:03:56.156Z,20.26
2022-08-08T02:06:43.268Z,20.94
2022-08-08T02:10:03.944Z,20.46
2022-08-08T02:12:57.951Z,20.11
2022-08-08T02:15:31.156Z,20.48
2022-08-08T02:18:32.814Z,19.98
2022-08-08T02:22:07.575Z,20.19
2022-08-08T02:24:51.616Z,20.62
2022-08-08T02:27:42.363Z,19.75
2022-08-08T02:30:49.876Z,21.42
2022-08-08T02:34:00.418Z,20.91
2022-08-08T02:36:32.152Z,20.98
2022-08-08T02:39:41.867Z,21.24
2022-08-08T02:42:36.278Z,20.28
2022-08-08T02:45:23.691Z,21.07
2022-08-08T02:48:10.632Z,20.20
2022-08-08T02:50:58.631Z,20.98
2022-08-08T02:53:57.934Z,21.14
2022-08-08T02:57:02.202Z,21.43
2022-08-08T02:59:57.485Z,20.81
2022-08-08T03:03:05.035Z,20.57
2022-08-08T03:05:46.548Z,20.42
2022-08-08T03:08:51.953Z,20.16
2022-08-08T03:12:03.034Z,20.64
2022-08-08T03:15:59.073Z,20.19
2022-08-08T03:18:04.614Z,19.95
2022-08-08T03:20:51.486Z,19.61
2022-08-08T03:23:40.109Z,19.37
2022-08-08T03:26:30.930Z,20.22
2022-08-08T03:29:17.089Z,19.68
2022-08-08T03:32:09.477Z,20.32
2022-08-08T03:34:40.336Z,20.61
2022-08-08T03:38:00.095Z,20.03
2022-08-08T03:40:02.318Z,19.85
2022-08-08T03:42:32.864Z,19.57
2022-08-08T03:45:02.223Z,19.08
2022-08-08T03:48:05.784Z,19.71
2022-08-08T03:50:42.610Z,19.85
2022-08-08T03:53:24.020Z,18.94
2022-08-08T03:56:09.500Z,19.68
2022-08-08T03:58:38.453Z,19.85
2022-08-08T04:01:23.708Z,20.33
2022-08-08T04:03:58.387Z,19.59
2022-08-08T04:06:30.343Z,19.21
2022-08-08T04:09:10.389Z,19.69
2022-08-08T04:11:57.810Z,19.70
2022-08-08T04:14:34.332Z,19.37
2022-08-08T04:17:15.634Z,18.05
2022-08-08T04:19:52.017Z,18.17
2022-08-08T04:22:27.491Z,19.47
2022-08-08T04:24:57.117Z,18.91
2022-08-08T04:28:02.936Z,18.73
2022-08-08T04:30:17.329Z,19.81
2022-08-08T04:32:49.814Z,19.68
2022-08-08T04:35:22.551Z,19.17
2022-08-08T04:37:53.758Z,19.71
2022-08-08T04:40:25.394Z,18.99
2022-08-08T04:43:00.774Z,18.98
2022-08-08T04:45:35.660Z,18.96
2022-08-08T04:48:05.501Z,19.36
2022-08-08T04:50:46.061Z,17.67
2022-08-08T04:54:37.404Z,20.06
2022-08-08T04:56:07.467Z,19.71
2022-08-08T04:58:35.758Z,20.74
2022-08-08T05:01:09.080Z,19.67
2022-08-08T05:04:09.598Z,20.46
2022-08-08T05:06:33.690Z,19.89
2022-08-08T05:09:06.197Z,21.12
2022-08-08T05:11:38.896Z,20.72
2022-08-08T05:14:12.238Z,20.96
2022-08-08T05:16:53.854Z,20.80
2022-08-08T05:20:12.279Z,19.89
2022-08-08T05:22:18.349Z,21.09
2022-08-08T05:24:49.496Z,21.25
2022-08-08T05:27:20.655Z,21.06
2022-08-08T05:29:51.782Z,20.79
2022-08-08T05:32:24.520Z,21.87
2022-08-08T05:35:04.549Z,21.59
2022-08-08T05:37:53.360Z,22.16
2022-08-08T05:40:33.880Z,22.03
2022-08-08T05:43:38.658Z,21.23
2022-08-08T05:46:07.628Z,21.38
2022-08-08T05:48:38.105Z,19.87
2022-08-08T05:51:13.394Z,22.35
2022-08-08T05:54:25.037Z,22.25
2022-08-08T05:56:47.582Z,22.52
2022-08-08T06:00:00.684Z,19.90
2022-08-08T06:02:43.465Z,21.63
2022-08-08T06:05:34.671Z,21.41
2022-08-08T06:08:10.412Z,23.55
2022-08-08T06:10:59.290Z,23.90
2022-08-08T06:13:35.599Z,22.96
2022-08-08T06:16:13.198Z,23.99
2022-08-08T06:19:15.892Z,24.35
2022-08-08T06:21:57.066Z,24.18
2022-08-08T06:24:36.237Z,25.20
2022-08-08T06:27:06.498Z,23.10
2022-08-08T06:29:59.940Z,23.43
2022-08-08T06:32:30.920Z,24.30
2022-08-08T06:36:00.667Z,22.24
2022-08-08T06:38:04.628Z,21.34
2022-08-08T06:40:37.218Z,22.74
2022-08-08T06:43:18.782Z,21.06
2022-08-08T06:45:53.653Z,19.55
2022-08-08T06:48:21.649Z,21.04
2022-08-08T06:50:55.705Z,22.45
2022-08-08T06:53:24.852Z,24.44
2022-08-08T06:56:09.196Z,22.52
2022-08-08T06:58:36.876Z,22.87
2022-08-08T07:01:52.194Z,23.65
2022-08-08T07:04:41.521Z,23.21
2022-08-08T07:06:57.323Z,25.73
2022-08-08T07:09:41.926Z,21.70
2022-08-08T07:12:20.400Z,26.20
2022-08-08T07:14:58.172Z,22.15
2022-08-08T07:17:56.584Z,26.54
2022-08-08T07:20:28.347Z,25.92
2022-08-08T07:23:04.540Z,25.73
2022-08-08T07:25:54.188Z,25.66
2022-08-08T07:28:24.140Z,28.71
2022-08-08T07:31:01.957Z,26.71
2022-08-08T07:33:37.715Z,26.72
2022-08-08T07:36:19.827Z,28.40
2022-08-08T07:38:52.917Z,26.51
2022-08-08T07:41:25.181Z,29.10
2022-08-08T07:43:58.890Z,25.55
2022-08-08T07:46:30.642Z,26.47
2022-08-08T07:49:07.832Z,27.48
2022-08-08T07:51:45.101Z,28.12
2022-08-08T07:54:42.822Z,29.71
2022-08-08T07:57:27.531Z,27.76
2022-08-08T08:00:15.778Z,28.61
2022-08-08T08:03:01.651Z,28.39
2022-08-08T08:05:33.099Z,27.67
2022-08-08T08:08:15.391Z,25.22
2022-08-08T08:10:51.057Z,27.01
2022-08-08T08:13:25.177Z,28.65
2022-08-08T08:16:01.754Z,29.63
2022-08-08T08:18:51.811Z,28.17
2022-08-08T08:21:44.151Z,28.11
2022-08-08T08:24:32.414Z,29.53
2022-08-08T08:27:02.847Z,27.17
2022-08-08T08:29:31.542Z,29.47
2022-08-08T08:31:59.315Z,31.43
2022-08-08T08:34:33.693Z,29.96
2022-08-08T08:37:03.512Z,30.42
2022-08-08T08:40:00.471Z,29.90
2022-08-08T08:42:32.163Z,31.37
2022-08-08T08:45:20.857Z,28.13
2022-08-08T08:47:54.249Z,29.61
2022-08-08T08:50:32.390Z,26.23
2022-08-08T08:53:28.202Z,27.89
2022-08-08T08:56:01.332Z,29.04
2022-08-08T08:58:39.872Z,28.62
2022-08-08T09:01:16.582Z,29.13
2022-08-08T09:03:51.425Z,29.00
2022-08-08T09:06:34.279Z,32.33
2022-08-08T09:09:19.158Z,29.63
2022-08-08T09:12:08.604Z,29.05
2022-08-08T09:14:45.034Z,29.47
2022-08-08T09:17:18.685Z,29.06
2022-08-08T09:22:00.861Z,29.49
2022-08-08T09:22:35.906Z,27.90
2022-08-08T09:25:05.433Z,28.42
2022-08-08T09:27:41.906Z,27.63
2022-08-08T09:30:27.982Z,28.93
2022-08-08T09:33:54.505Z,30.97
2022-08-08T09:35:49.347Z,30.65
2022-08-08T09:38:52.927Z,30.58
2022-08-08T09:41:54.920Z,29.12
2022-08-08T09:44:35.025Z,29.97
2022-08-08T09:48:02.035Z,28.82
2022-08-08T09:50:01.824Z,26.46
2022-08-08T09:52:55.980Z,27.72
2022-08-08T09:55:51.652Z,29.37
2022-08-08T09:58:20.357Z,29.88
2022-08-08T10:00:57.411Z,29.26
2022-08-08T10:03:31.561Z,29.86
2022-08-08T10:05:59.113Z,26.96
2022-08-08T10:08:30.525Z,28.67
2022-08-08T10:11:01.111Z,29.79
2022-08-08T10:13:35.615Z,29.31
2022-08-08T10:16:03.833Z,33.08
2022-08-08T10:18:33.526Z,30.36
2022-08-08T10:21:24.921Z,25.59
2022-08-08T10:23:57.964Z,26.97
2022-08-08T10:26:57.310Z,32.38
2022-08-08T10:29:57.106Z,33.09
2022-08-08T10:32:37.439Z,30.91
2022-08-08T10:36:07.601Z,31.50
2022-08-08T10:38:05.824Z,33.47
2022-08-08T10:40:38.126Z,31.80
2022-08-08T10:43:06.886Z,31.34
2022-08-08T10:45:56.222Z,31.39
2022-08-08T10:48:56.166Z,26.58
2022-08-08T10:51:31.094Z,30.87
2022-08-08T10:54:08.234Z,29.61
2022-08-08T10:56:43.295Z,30.28
2022-08-08T10:59:14.260Z,28.03
2022-08-08T11:01:49.433Z,29.84
2022-08-08T11:04:29.866Z,26.73
2022-08-08T11:07:06.835Z,27.67
2022-08-08T11:09:34.368Z,30.91
2022-08-08T11:12:12.394Z,31.34
2022-08-08T11:14:58.210Z,32.65
2022-08-08T11:17:58.657Z,29.58
2022-08-08T11:20:27.493Z,28.70
2022-08-08T11:23:00.000Z,30.08
2022-08-08T11:25:52.780Z,26.56
2022-08-08T11:28:26.048Z,28.89
2022-08-08T11:30:59.853Z,26.84
2022-08-08T11:33:51.155Z,27.39
2022-08-08T11:36:15.177Z,29.96
2022-08-08T11:38:54.717Z,31.77
2022-08-08T11:41:33.586Z,29.63
2022-08-08T11:44:02.287Z,28.58
2022-08-08T11:46:32.584Z,32.65
2022-08-08T11:49:07.563Z,31.15
2022-08-08T11:51:39.854Z,33.17
2022-08-08T11:54:31.338Z,29.75
2022-08-08T11:57:36.025Z,32.31
2022-08-08T12:00:07.649Z,33.22
2022-08-08T12:03:15.017Z,31.91
2022-08-08T12:05:43.129Z,34.29
2022-08-08T12:08:11.332Z,33.76
2022-08-08T12:10:47.971Z,27.13
2022-08-08T12:13:22.094Z,32.45
2022-08-08T12:16:18.597Z,30.96
2022-08-08T12:18:54.240Z,29.88
2022-08-08T12:21:59.961Z,30.73
2022-08-08T12:24:16.475Z,33.70
2022-08-08T12:26:54.188Z,31.78
2022-08-08T12:29:41.307Z,32.53
2022-08-08T12:32:19.821Z,31.22
2022-08-08T12:35:13.201Z,28.75
2022-08-08T12:37:48.182Z,31.82
2022-08-08T12:40:54.424Z,31.63
2022-08-08T12:43:47.512Z,30.68
2022-08-08T12:46:25.150Z,33.22
2022-08-08T12:49:25.200Z,33.98
2022-08-08T12:51:59.002Z,32.01
2022-08-08T12:54:35.927Z,30.65
2022-08-08T12:57:24.443Z,33.63
2022-08-08T13:00:05.167Z,33.58
2022-08-08T13:02:42.077Z,32.40
2022-08-08T13:05:26.928Z,33.21
2022-08-08T13:08:19.098Z,30.21
2022-08-08T13:10:58.042Z,29.45
2022-08-08T13:13:37.254Z,31.12
2022-08-08T13:16:37.668Z,30.32
2022-08-08T13:19:12.348Z,27.64
2022-08-08T13:21:53.593Z,31.45
2022-08-08T13:24:40.924Z,34.05
2022-08-08T13:27:17.687Z,33.85
2022-08-08T13:30:07.894Z,29.89
2022-08-08T13:32:39.489Z,35.12
2022-08-08T13:35:24.736Z,32.93
2022-08-08T13:38:06.129Z,26.96
2022-08-08T13:40:35.532Z,30.67
2022-08-08T13:43:03.995Z,31.82
2022-08-08T13:45:31.534Z,30.73
2022-08-08T13:48:00.029Z,32.05
2022-08-08T13:50:36.294Z,33.54
2022-08-08T13:53:25.111Z,30.95
2022-08-08T13:56:02.497Z,30.40
2022-08-08T13:58:30.221Z,32.15
2022-08-08T14:00:58.066Z,29.80
2022-08-08T14:03:52.236Z,28.00
2022-08-08T14:06:32.139Z,31.42
2022-08-08T14:09:25.134Z,32.84
2022-08-08T14:11:51.512Z,31.17
2022-08-08T14:14:20.949Z,29.57
2022-08-08T14:16:53.326Z,32.84
2022-08-08T14:19:57.275Z,33.71
2022-08-08T14:22:22.842Z,31.15
2022-08-08T14:24:58.910Z,29.57
2022-08-08T14:27:37.558Z,28.94
2022-08-08T14:30:18.223Z,29.34
2022-08-08T14:32:53.854Z,29.50
2022-08-08T14:35:25.067Z,29.08
2022-08-08T14:38:09.367Z,31.87
2022-08-08T14:40:42.409Z,30.33
2022-08-08T14:43:31.105Z,32.72
2022-08-08T14:46:05.945Z,32.52
2022-08-08T14:48:42.499Z,29.57
2022-08-08T14:51:26.193Z,29.29
2022-08-08T14:54:13.449Z,30.29
2022-08-08T14:56:43.392Z,32.10
2022-08-08T14:59:31.419Z,32.30
2022-08-08T15:02:05.625Z,27.06
2022-08-08T15:04:35.256Z,28.11
2022-08-08T15:07:02.846Z,31.28
2022-08-08T15:09:31.680Z,33.07
2022-08-08T15:11:59.813Z,32.37
2022-08-08T15:14:26.978Z,32.66
2022-08-08T15:16:57.163Z,30.86
2022-08-08T15:19:28.224Z,31.72
2022-08-08T15:21:57.775Z,28.09
2022-08-08T15:24:31.263Z,30.91
2022-08-08T15:27:00.192Z,32.23
2022-08-08T15:29:39.365Z,32.46
2022-08-08T15:32:19.512Z,32.11
2022-08-08T15:34:47.970Z,31.74
2022-08-08T15:37:15.189Z,32.65
2022-08-08T15:39:44.782Z,33.76
2022-08-08T15:42:31.197Z,30.63
2022-08-08T15:44:59.572Z,31.72
2022-08-08T15:47:27.169Z,33.23
2022-08-08T15:49:54.460Z,31.64
2022-08-08T15:52:23.208Z,31.31
2022-08-08T15:54:52.650Z,32.87
2022-08-08T15:57:20.974Z,30.02
2022-08-08T16:00:18.047Z,32.87
2022-08-08T16:02:44.682Z,32.10
2022-08-08T16:05:23.827Z,32.07
2022-08-08T16:07:53.892Z,30.05
2022-08-08T16:13:09.906Z,30.62
2022-08-08T16:13:45.231Z,30.14
2022-08-08T16:16:13.485Z,31.00
2022-08-08T16:18:57.107Z,31.71
2022-08-08T16:21:31.486Z,29.56
2022-08-08T16:24:01.508Z,27.70
2022-08-08T16:26:32.802Z,28.00
2022-08-08T16:29:01.871Z,30.32
2022-08-08T16:31:30.287Z,29.64
2022-08-08T16:33:59.562Z,30.22
2022-08-08T16:36:33.176Z,30.42
2022-08-08T16:39:09.939Z,29.15
2022-08-08T16:41:51.335Z,30.41
2022-08-08T16:44:27.767Z,26.45
2022-08-08T16:47:21.911Z,29.37
2022-08-08T16:50:13.747Z,28.67
2022-08-08T16:55:06.935Z,29.89
2022-08-08T16:55:53.125Z,30.64
2022-08-08T16:58:20.471Z,25.80
2022-08-08T17:00:48.715Z,29.02
2022-08-08T17:03:25.475Z,27.20
2022-08-08T17:06:37.050Z,29.24
2022-08-08T17:08:54.173Z,29.94
2022-08-08T17:11:20.939Z,28.92
2022-08-08T17:14:01.699Z,29.80
2022-08-08T17:16:29.530Z,27.41
2022-08-08T17:18:58.431Z,29.26
2022-08-08T17:21:41.390Z,30.08
2022-08-08T17:24:20.599Z,28.69
2022-08-08T17:26:54.094Z,29.30
2022-08-08T17:29:25.496Z,28.71
2022-08-08T17:31:52.996Z,29.79
2022-08-08T17:34:37.063Z,30.05
2022-08-08T17:37:11.147Z,30.19
2022-08-08T17:40:04.163Z,30.11
2022-08-08T17:42:26.422Z,28.37
2022-08-08T17:44:53.712Z,30.72
2022-08-08T17:47:27.353Z,30.09
2022-08-08T17:50:01.136Z,28.36
2022-08-08T17:52:35.171Z,29.54
2022-08-08T17:55:05.082Z,28.80
2022-08-08T17:57:35.339Z,30.38
2022-08-08T18:00:11.638Z,30.98
2022-08-08T18:02:52.557Z,29.64
2022-08-08T18:05:48.064Z,29.93
2022-08-08T18:08:24.434Z,30.14
2022-08-08T18:11:04.942Z,28.78
2022-08-08T18:13:34.953Z,30.46
2022-08-08T18:16:08.371Z,29.76
2022-08-08T18:18:39.294Z,30.61
2022-08-08T18:21:34.900Z,30.63
2022-08-08T18:24:01.554Z,28.38
2022-08-08T18:26:29.602Z,29.07
2022-08-08T18:28:57.718Z,28.54
2022-08-08T18:31:25.059Z,29.19
2022-08-08T18:34:25.173Z,28.58
2022-08-08T18:36:44.313Z,28.40
2022-08-08T18:39:16.598Z,29.39
2022-08-08T18:42:03.813Z,28.50
2022-08-08T18:44:34.633Z,26.78
2022-08-08T18:47:03.793Z,27.58
2022-08-08T18:49:40.856Z,27.60
2022-08-08T18:52:22.664Z,28.04
2022-08-08T18:54:58.940Z,27.53
2022-08-08T18:57:28.483Z,28.60
2022-08-08T19:00:01.289Z,27.77
2022-08-08T19:02:29.832Z,27.85
2022-08-08T19:04:57.385Z,27.53
2022-08-08T19:07:29.575Z,28.02
2022-08-08T19:10:13.571Z,28.49
2022-08-08T19:12:44.764Z,27.00
2022-08-08T19:15:23.685Z,28.13
2022-08-08T19:18:30.794Z,27.48
2022-08-08T19:20:42.979Z,28.13
2022-08-08T19:23:14.175Z,28.20
2022-08-08T19:26:19.715Z,27.82
2022-08-08T19:28:31.079Z,27.33
2022-08-08T19:31:03.755Z,26.55
2022-08-08T19:33:52.154Z,27.44
2022-08-08T19:36:27.468Z,26.66
2022-08-08T19:38:56.236Z,26.76
2022-08-08T19:41:29.359Z,27.56
2022-08-08T19:44:02.945Z,26.78
2022-08-08T19:46:33.732Z,26.87
2022-08-08T19:49:03.022Z,26.54
2022-08-08T19:51:34.443Z,25.85
2022-08-08T19:54:06.611Z,24.94
2022-08-08T19:56:39.801Z,26.05
2022-08-08T19:59:13.038Z,26.56
2022-08-08T20:02:01.261Z,26.20
2022-08-08T20:04:28.111Z,25.39
2022-08-08T20:06:57.654Z,26.63
2022-08-08T20:09:25.520Z,26.74
2022-08-08T20:11:59.440Z,25.81
2022-08-08T20:14:35.741Z,25.28
2022-08-08T20:17:08.659Z,24.99
2022-08-08T20:19:42.209Z,24.99
2022-08-08T20:22:20.696Z,25.14
2022-08-08T20:24:53.219Z,24.79
2022-08-08T20:27:21.333Z,24.46
2022-08-08T20:30:00.062Z,24.89
2022-08-08T20:32:37.677Z,24.89
2022-08-08T20:35:05.596Z,24.94
2022-08-08T20:37:46.633Z,24.82
2022-08-08T20:40:35.092Z,24.40
2022-08-08T20:43:13.195Z,24.74
2022-08-08T20:45:57.700Z,25.18
2022-08-08T20:48:26.204Z,24.82
2022-08-08T20:50:55.540Z,24.17
2022-08-08T20:53:57.803Z,25.01
2022-08-08T20:56:10.036Z,24.75
2022-08-08T20:58:38.782Z,25.06
2022-08-08T21:01:20.031Z,25.72
2022-08-08T21:03:59.645Z,24.97
2022-08-08T21:06:51.888Z,24.65
2022-08-08T21:09:16.018Z,24.37
2022-08-08T21:11:51.231Z,24.89
2022-08-08T21:14:30.369Z,25.05
2022-08-08T21:17:01.304Z,23.27
2022-08-08T21:19:33.997Z,24.95
2022-08-08T21:22:11.815Z,24.09
2022-08-08T21:24:42.101Z,24.56
2022-08-08T21:28:06.398Z,24.12
2022-08-08T21:30:10.937Z,24.57
2022-08-08T21:32:45.972Z,25.16
2022-08-08T21:36:18.731Z,25.01
2022-08-08T21:38:11.971Z,25.22
2022-08-08T21:40:56.112Z,25.07
2022-08-08T21:43:34.303Z,24.95
2022-08-08T21:48:05.190Z,24.37
2022-08-08T21:48:58.208Z,24.49
2022-08-08T21:52:09.730Z,24.60
2022-08-08T21:54:51.906Z,24.31
2022-08-08T21:57:09.644Z,24.15
2022-08-08T22:00:01.663Z,24.46
2022-08-08T22:02:24.047Z,23.22
2022-08-08T22:04:55.649Z,23.26
2022-08-08T22:07:39.888Z,23.37
2022-08-08T22:10:09.821Z,22.90
2022-08-08T22:12:44.863Z,23.95
2022-08-08T22:15:13.799Z,23.80
2022-08-08T22:17:45.552Z,24.24
2022-08-08T22:20:23.523Z,23.96
2022-08-08T22:22:52.440Z,23.02
2022-08-08T22:25:25.011Z,23.66
2022-08-08T22:28:03.122Z,23.92
2022-08-08T22:30:33.482Z,23.99
2022-08-08T22:33:01.618Z,22.78
2022-08-08T22:36:05.206Z,23.43
2022-08-08T22:38:17.537Z,24.29
2022-08-08T22:40:48.322Z,24.25
2022-08-08T22:43:17.959Z,21.64
2022-08-08T22:45:46.737Z,23.44
2022-08-08T22:48:19.345Z,23.94
2022-08-08T22:50:48.697Z,23.73
2022-08-08T22:54:30.321Z,24.03
2022-08-08T22:56:03.688Z,23.24
2022-08-08T22:58:33.770Z,23.53
2022-08-08T23:01:26.449Z,23.70
2022-08-08T23:03:55.829Z,22.93
2022-08-08T23:06:24.948Z,22.43
2022-08-08T23:08:58.331Z,23.64
2022-08-08T23:11:57.962Z,23.27
2022-08-08T23:14:17.555Z,22.20
2022-08-08T23:16:48.108Z,23.59
2022-08-08T23:19:21.392Z,23.06
2022-08-08T23:21:48.858Z,22.97
2022-08-08T23:24:22.388Z,22.18
2022-08-08T23:26:53.479Z,22.80
2022-08-08T23:29:24.080Z,22.92
2022-08-08T23:31:50.863Z,22.65
2022-08-08T23:34:19.567Z,22.47
2022-08-08T23:36:47.953Z,22.69
2022-08-08T23:39:15.640Z,22.20
2022-08-08T23:41:47.107Z,22.64
2022-08-08T23:44:18.538Z,21.43
2022-08-08T23:49:02.529Z,20.84
2022-08-08T23:49:34.066Z,22.24
2022-08-08T23:52:04.363Z,22.55
2022-08-08T23:54:42.970Z,22.62
2022-08-08T23:57:26.345Z,22.95
2022-08-08T23:59:59.077Z,22.56
